createdAt,value
2022-10-22T00:00:01.051Z,13.49
2022-10-22T00:02:29.291Z,13.49
2022-10-22T00:05:12.550Z,13.47
2022-10-22T00:07:42.922Z,13.46
2022-10-22T00:10:14.728Z,13.46
2022-10-22T00:12:51.008Z,13.46
2022-10-22T00:15:21.226Z,13.46
2022-10-22T00:17:51.127Z,13.47
2022-10-22T00:20:22.907Z,13.48
2022-10-22T00:22:55.182Z,13.48
2022-10-22T00:25:24.208Z,13.47
2022-10-22T00:27:59.916Z,13.46
2022-10-22T00:30:38.320Z,13.45
2022-10-22T00:33:06.604Z,13.42
2022-10-22T00:35:39.720Z,13.38
2022-10-22T00:38:12.726Z,13.33
2022-10-22T00:40:44.520Z,13.27
2022-10-22T00:43:13.927Z,13.28
2022-10-22T00:45:45.952Z,13.27
2022-10-22T00:48:18.118Z,13.26
2022-10-22T00:50:49.514Z,13.25
2022-10-22T00:53:24.182Z,13.23
2022-10-22T00:55:55.334Z,13.23
2022-10-22T00:58:27.703Z,13.21
2022-10-22T01:01:00.112Z,13.23
2022-10-22T01:03:28.241Z,13.24
2022-10-22T01:05:59.802Z,13.24
2022-10-22T01:08:39.100Z,13.23
2022-10-22T01:11:18.428Z,13.23
2022-10-22T01:13:59.319Z,13.19
2022-10-22T01:16:36.621Z,13.23
2022-10-22T01:19:20.363Z,13.21
2022-10-22T01:21:57.424Z,13.21
2022-10-22T01:24:37.652Z,13.20
2022-10-22T01:27:11.396Z,13.19
2022-10-22T01:29:44.027Z,13.18
2022-10-22T01:32:16.757Z,13.18
2022-10-22T01:34:48.740Z,13.18
2022-10-22T01:37:18.660Z,13.16
2022-10-22T01:39:48.970Z,13.14
2022-10-22T01:42:18.624Z,13.14
2022-10-22T01:44:48.963Z,13.14
2022-10-22T01:47:19.303Z,13.13
2022-10-22T01:50:14.071Z,13.13
2022-10-22T01:52:55.041Z,13.11
2022-10-22T01:55:34.871Z,13.07
2022-10-22T01:58:16.879Z,13.06
2022-10-22T02:00:52.772Z,13.03
2022-10-22T02:03:29.046Z,13.00
2022-10-22T02:06:01.214Z,13.00
2022-10-22T02:08:44.758Z,12.99
2022-10-22T02:11:14.516Z,12.99
2022-10-22T02:13:52.265Z,12.97
2022-10-22T02:16:30.954Z,12.97
2022-10-22T02:19:09.190Z,12.94
2022-10-22T02:21:45.884Z,12.89
2022-10-22T02:24:17.928Z,12.84
2022-10-22T02:26:55.760Z,12.81
2022-10-22T02:29:28.502Z,12.78
2022-10-22T02:32:01.846Z,12.76
2022-10-22T02:34:32.977Z,12.72
2022-10-22T02:37:03.478Z,12.69
2022-10-22T02:39:33.257Z,12.66
2022-10-22T02:42:03.292Z,12.58
2022-10-22T02:44:31.376Z,12.56
2022-10-22T02:47:01.822Z,12.53
2022-10-22T02:49:30.146Z,12.48
2022-10-22T02:51:58.738Z,12.45
2022-10-22T02:54:28.749Z,12.45
2022-10-22T02:56:56.896Z,12.42
2022-10-22T02:59:25.135Z,12.42
2022-10-22T03:01:53.299Z,12.41
2022-10-22T03:04:24.651Z,12.37
2022-10-22T03:06:53.027Z,12.35
2022-10-22T03:09:24.941Z,12.31
2022-10-22T03:11:54.864Z,12.29
2022-10-22T03:14:23.647Z,12.25
2022-10-22T03:16:53.304Z,12.22
2022-10-22T03:19:24.370Z,12.19
2022-10-22T03:21:57.697Z,12.17
2022-10-22T03:24:30.421Z,12.16
2022-10-22T03:26:59.834Z,12.15
2022-10-22T03:29:31.097Z,12.15
2022-10-22T03:31:59.482Z,12.15
2022-10-22T03:34:30.400Z,12.11
2022-10-22T03:37:02.037Z,12.10
2022-10-22T03:39:31.384Z,12.10
2022-10-22T03:41:59.601Z,12.09
2022-10-22T03:44:28.834Z,12.09
2022-10-22T03:47:00.058Z,12.13
2022-10-22T03:49:30.754Z,12.14
2022-10-22T03:52:06.142Z,12.13
2022-10-22T03:54:34.796Z,12.10
2022-10-22T03:57:02.914Z,12.06
2022-10-22T03:59:36.277Z,12.04
2022-10-22T04:02:04.466Z,12.00
2022-10-22T04:04:33.478Z,11.95
2022-10-22T04:07:08.085Z,11.88
2022-10-22T04:09:38.311Z,11.81
2022-10-22T04:12:08.097Z,11.75
2022-10-22T04:14:36.971Z,11.68
2022-10-22T04:17:04.989Z,11.61
2022-10-22T04:19:34.241Z,11.54
2022-10-22T04:22:04.103Z,11.46
2022-10-22T04:24:32.970Z,11.42
2022-10-22T04:27:01.333Z,11.37
2022-10-22T04:29:29.488Z,11.33
2022-10-22T04:31:57.560Z,11.27
2022-10-22T04:34:29.075Z,11.24
2022-10-22T04:36:57.419Z,11.20
2022-10-22T04:39:27.181Z,11.16
2022-10-22T04:41:55.775Z,11.13
2022-10-22T04:44:24.054Z,11.10
2022-10-22T04:46:58.005Z,11.07
2022-10-22T04:49:26.180Z,11.05
2022-10-22T04:51:54.554Z,11.00
2022-10-22T04:54:33.131Z,10.96
2022-10-22T04:57:02.828Z,10.94
2022-10-22T04:59:32.107Z,10.89
2022-10-22T05:02:00.407Z,10.87
2022-10-22T05:04:29.670Z,10.83
2022-10-22T05:06:57.947Z,10.82
2022-10-22T05:09:28.821Z,10.79
2022-10-22T05:11:57.245Z,10.77
2022-10-22T05:14:27.485Z,10.72
2022-10-22T05:16:57.132Z,10.68
2022-10-22T05:19:27.446Z,10.62
2022-10-22T05:21:57.571Z,10.60
2022-10-22T05:24:28.648Z,10.56
2022-10-22T05:26:58.789Z,10.52
2022-10-22T05:29:28.605Z,10.49
2022-10-22T05:31:56.966Z,10.47
2022-10-22T05:34:25.294Z,10.43
2022-10-22T05:36:53.483Z,10.40
2022-10-22T05:39:21.653Z,10.35
2022-10-22T05:41:49.707Z,10.29
2022-10-22T05:44:20.262Z,10.25
2022-10-22T05:46:50.096Z,10.22
2022-10-22T05:49:18.218Z,10.18
2022-10-22T05:51:47.433Z,10.15
2022-10-22T05:54:19.098Z,10.12
2022-10-22T05:56:47.559Z,10.09
2022-10-22T05:59:18.874Z,10.06
2022-10-22T06:01:46.971Z,10.04
2022-10-22T06:04:18.283Z,10.01
2022-10-22T06:06:48.213Z,10.00
2022-10-22T06:09:22.097Z,9.97
2022-10-22T06:11:51.211Z,9.95
2022-10-22T06:14:22.493Z,9.89
2022-10-22T06:16:51.186Z,9.88
2022-10-22T06:19:22.306Z,9.85
2022-10-22T06:21:52.169Z,9.83
2022-10-22T06:24:20.725Z,9.81
2022-10-22T06:26:51.770Z,9.78
2022-10-22T06:29:20.640Z,9.75
2022-10-22T06:31:49.068Z,9.73
2022-10-22T06:34:19.133Z,9.71
2022-10-22T06:36:49.802Z,9.70
2022-10-22T06:39:19.145Z,9.67
2022-10-22T06:41:47.686Z,9.63
2022-10-22T06:44:17.854Z,9.64
2022-10-22T06:46:45.825Z,9.63
2022-10-22T06:49:15.430Z,9.65
2022-10-22T06:51:43.867Z,9.64
2022-10-22T06:54:13.768Z,9.62
2022-10-22T06:56:43.257Z,9.60
2022-10-22T06:59:11.640Z,9.59
2022-10-22T07:01:40.440Z,9.58
2022-10-22T07:04:09.340Z,9.57
2022-10-22T07:06:37.663Z,9.58
2022-10-22T07:09:07.982Z,9.57
2022-10-22T07:11:42.446Z,9.59
2022-10-22T07:14:11.469Z,9.61
2022-10-22T07:16:42.256Z,9.60
2022-10-22T07:19:10.409Z,9.61
2022-10-22T07:21:38.474Z,9.64
2022-10-22T07:24:07.132Z,9.65
2022-10-22T07:26:35.260Z,9.66
2022-10-22T07:29:06.580Z,9.67
2022-10-22T07:31:34.842Z,9.72
2022-10-22T07:34:03.235Z,9.75
2022-10-22T07:36:31.385Z,9.78
2022-10-22T07:39:01.726Z,9.82
2022-10-22T07:41:31.134Z,9.84
2022-10-22T07:43:59.817Z,9.85
2022-10-22T07:46:29.372Z,9.86
2022-10-22T07:48:57.486Z,9.89
2022-10-22T07:51:26.688Z,9.93
2022-10-22T07:53:54.717Z,9.96
2022-10-22T07:56:23.135Z,10.00
2022-10-22T07:58:51.214Z,10.00
2022-10-22T08:01:19.580Z,9.98
2022-10-22T08:03:51.669Z,9.99
2022-10-22T08:06:21.033Z,9.97
2022-10-22T08:08:49.613Z,9.95
2022-10-22T08:11:17.766Z,9.94
2022-10-22T08:13:46.067Z,9.95
2022-10-22T08:16:14.624Z,9.98
2022-10-22T08:18:44.349Z,10.00
2022-10-22T08:21:14.608Z,9.99
2022-10-22T08:23:42.583Z,10.01
2022-10-22T08:26:11.204Z,10.07
2022-10-22T08:28:39.543Z,10.12
2022-10-22T08:31:09.267Z,10.18
2022-10-22T08:33:38.930Z,10.33
2022-10-22T08:36:08.166Z,10.47
2022-10-22T08:38:38.100Z,10.60
2022-10-22T08:41:13.096Z,10.68
2022-10-22T08:44:07.493Z,10.78
2022-10-22T08:46:48.660Z,10.89
2022-10-22T08:49:22.124Z,11.00
2022-10-22T08:51:50.701Z,11.08
2022-10-22T08:54:28.907Z,11.09
2022-10-22T08:57:24.316Z,11.13
2022-10-22T09:00:03.001Z,11.15
2022-10-22T09:02:39.912Z,11.19
2022-10-22T09:05:23.227Z,11.23
2022-10-22T09:07:51.634Z,11.29
2022-10-22T09:10:28.447Z,11.32
2022-10-22T09:12:56.529Z,11.39
2022-10-22T09:15:24.691Z,11.46
2022-10-22T09:18:03.116Z,11.54
2022-10-22T09:20:40.657Z,11.71
2022-10-22T09:23:23.389Z,12.13
2022-10-22T09:25:55.535Z,12.50
2022-10-22T09:28:24.112Z,12.78
2022-10-22T09:30:52.586Z,12.98
2022-10-22T09:33:26.053Z,13.14
2022-10-22T09:35:56.333Z,13.26
2022-10-22T09:38:27.934Z,13.24
2022-10-22T09:41:00.509Z,13.11
2022-10-22T09:43:32.115Z,12.95
2022-10-22T09:46:03.179Z,12.84
2022-10-22T09:48:34.559Z,12.75
2022-10-22T09:51:08.900Z,12.70
2022-10-22T09:53:40.841Z,12.67
2022-10-22T09:56:18.482Z,12.68
2022-10-22T09:58:49.562Z,12.67
2022-10-22T10:01:21.162Z,12.66
2022-10-22T10:03:50.856Z,12.67
2022-10-22T10:06:21.028Z,12.67
2022-10-22T10:08:50.273Z,12.66
2022-10-22T10:11:29.371Z,12.62
2022-10-22T10:14:09.860Z,12.61
2022-10-22T10:16:44.279Z,12.67
2022-10-22T10:19:31.907Z,12.67
2022-10-22T10:22:12.272Z,12.69
2022-10-22T10:24:58.515Z,12.72
2022-10-22T10:27:35.963Z,12.74
2022-10-22T10:30:11.151Z,12.78
2022-10-22T10:32:56.992Z,12.90
2022-10-22T10:35:29.490Z,12.99
2022-10-22T10:38:20.018Z,13.06
2022-10-22T10:40:53.098Z,13.16
2022-10-22T10:43:29.899Z,13.23
2022-10-22T10:46:07.937Z,13.30
2022-10-22T10:48:51.284Z,13.36
2022-10-22T10:51:36.822Z,13.40
2022-10-22T10:54:23.158Z,13.47
2022-10-22T10:56:57.783Z,13.51
2022-10-22T10:59:44.344Z,13.56
2022-10-22T11:02:33.685Z,13.60
2022-10-22T11:05:17.337Z,13.65
2022-10-22T11:07:53.465Z,13.71
2022-10-22T11:10:31.122Z,13.78
2022-10-22T11:13:11.433Z,13.83
2022-10-22T11:15:42.717Z,13.94
2022-10-22T11:18:18.940Z,14.01
2022-10-22T11:20:54.900Z,14.08
2022-10-22T11:23:29.987Z,14.17
2022-10-22T11:25:58.233Z,14.27
2022-10-22T11:28:33.371Z,14.38
2022-10-22T11:31:08.422Z,14.48
2022-10-22T11:33:46.989Z,14.56
2022-10-22T11:36:15.675Z,14.68
2022-10-22T11:38:44.098Z,14.77
2022-10-22T11:41:14.445Z,14.76
2022-10-22T11:43:57.656Z,14.78
2022-10-22T11:46:54.892Z,14.91
2022-10-22T11:49:28.565Z,14.96
2022-10-22T11:52:24.894Z,14.96
2022-10-22T11:54:57.825Z,14.78
2022-10-22T11:57:31.055Z,14.73
2022-10-22T12:00:00.287Z,14.78
2022-10-22T12:02:41.436Z,14.84
2022-10-22T12:05:35.997Z,14.89
2022-10-22T12:08:24.516Z,14.97
2022-10-22T12:11:16.720Z,15.11
2022-10-22T12:14:13.071Z,15.20
2022-10-22T12:16:55.699Z,15.29
2022-10-22T12:19:33.060Z,15.43
2022-10-22T12:22:12.803Z,15.70
2022-10-22T12:24:44.654Z,15.82
2022-10-22T12:27:22.704Z,15.95
2022-10-22T12:29:55.588Z,16.12
2022-10-22T12:32:25.369Z,16.31
2022-10-22T12:34:55.680Z,16.47
2022-10-22T12:37:23.674Z,16.55
2022-10-22T12:39:52.619Z,16.52
2022-10-22T12:42:22.668Z,16.56
2022-10-22T12:44:57.203Z,16.64
2022-10-22T12:47:26.412Z,16.70
2022-10-22T12:49:56.469Z,16.66
2022-10-22T12:52:25.918Z,16.57
2022-10-22T12:54:55.055Z,16.54
2022-10-22T12:57:24.778Z,16.54
2022-10-22T12:59:53.374Z,16.53
2022-10-22T13:02:24.646Z,16.70
2022-10-22T13:05:17.316Z,16.89
2022-10-22T13:07:49.368Z,17.06
2022-10-22T13:10:21.844Z,17.12
2022-10-22T13:12:56.618Z,17.21
2022-10-22T13:15:36.750Z,17.24
2022-10-22T13:18:06.283Z,17.57
2022-10-22T13:20:38.590Z,17.51
2022-10-22T13:23:07.180Z,17.44
2022-10-22T13:25:38.632Z,17.47
2022-10-22T13:28:19.962Z,17.54
2022-10-22T13:30:55.649Z,17.73
2022-10-22T13:33:27.507Z,17.73
2022-10-22T13:35:57.997Z,17.83
2022-10-22T13:38:28.516Z,17.63
2022-10-22T13:40:57.452Z,17.59
2022-10-22T13:43:26.243Z,17.79
2022-10-22T13:45:57.025Z,17.79
2022-10-22T13:48:27.325Z,17.69
2022-10-22T13:50:58.111Z,17.77
2022-10-22T13:53:28.840Z,17.68
2022-10-22T13:55:56.904Z,17.60
2022-10-22T13:58:25.695Z,17.60
2022-10-22T14:00:57.219Z,17.98
2022-10-22T14:03:29.716Z,18.11
2022-10-22T14:05:59.262Z,17.78
2022-10-22T14:08:29.248Z,17.54
2022-10-22T14:10:57.393Z,17.63
2022-10-22T14:13:25.655Z,17.46
2022-10-22T14:15:53.974Z,17.65
2022-10-22T14:18:26.877Z,18.06
2022-10-22T14:20:57.187Z,18.21
2022-10-22T14:23:29.352Z,18.11
2022-10-22T14:25:58.614Z,17.88
2022-10-22T14:28:26.759Z,17.74
2022-10-22T14:30:56.051Z,17.83
2022-10-22T14:33:31.372Z,17.92
2022-10-22T14:36:00.297Z,17.85
2022-10-22T14:38:30.611Z,17.71
2022-10-22T14:41:00.407Z,17.62
2022-10-22T14:43:31.247Z,17.60
2022-10-22T14:45:59.655Z,17.46
2022-10-22T14:48:27.743Z,17.42
2022-10-22T14:50:56.191Z,17.33
2022-10-22T14:53:24.420Z,17.20
2022-10-22T14:55:55.646Z,17.24
2022-10-22T14:58:23.642Z,17.37
2022-10-22T15:00:54.972Z,17.45
2022-10-22T15:03:26.713Z,17.46
2022-10-22T15:05:55.961Z,17.37
2022-10-22T15:08:24.052Z,17.32
2022-10-22T15:11:01.917Z,17.31
2022-10-22T15:13:30.948Z,17.31
2022-10-22T15:16:00.129Z,17.34
2022-10-22T15:18:29.227Z,17.40
2022-10-22T15:20:58.328Z,17.51
2022-10-22T15:23:26.569Z,17.57
2022-10-22T15:25:55.564Z,17.66
2022-10-22T15:28:25.593Z,17.60
2022-10-22T15:30:55.814Z,17.62
2022-10-22T15:33:23.638Z,17.60
2022-10-22T15:35:51.987Z,17.57
2022-10-22T15:38:20.632Z,17.58
2022-10-22T15:40:49.031Z,17.60
2022-10-22T15:43:17.265Z,17.56
2022-10-22T15:46:00.747Z,17.51
2022-10-22T15:48:28.813Z,17.54
2022-10-22T15:50:56.837Z,17.57
2022-10-22T15:53:24.947Z,17.59
2022-10-22T15:55:55.336Z,17.58
2022-10-22T15:58:23.552Z,17.50
2022-10-22T16:00:53.038Z,17.38
2022-10-22T16:03:23.505Z,17.34
2022-10-22T16:05:57.498Z,17.27
2022-10-22T16:08:25.712Z,17.24
2022-10-22T16:10:54.095Z,17.20
2022-10-22T16:13:24.102Z,17.08
2022-10-22T16:15:57.103Z,17.02
2022-10-22T16:18:25.125Z,16.94
2022-10-22T16:20:53.445Z,16.88
2022-10-22T16:23:21.478Z,16.86
2022-10-22T16:25:49.519Z,16.90
2022-10-22T16:28:17.748Z,16.91
2022-10-22T16:30:45.997Z,16.91
2022-10-22T16:33:15.450Z,16.91
2022-10-22T16:35:43.866Z,16.91
2022-10-22T16:38:12.308Z,16.86
2022-10-22T16:40:42.227Z,16.80
2022-10-22T16:43:10.201Z,16.73
2022-10-22T16:45:38.184Z,16.63
2022-10-22T16:48:06.389Z,16.54
2022-10-22T16:50:35.979Z,16.37
2022-10-22T16:53:04.022Z,16.20
2022-10-22T16:55:32.223Z,16.04
2022-10-22T16:58:00.263Z,15.92
2022-10-22T17:00:28.292Z,15.83
2022-10-22T17:02:56.607Z,15.76
2022-10-22T17:05:25.374Z,15.69
2022-10-22T17:07:54.782Z,15.66
2022-10-22T17:12:51.715Z,15.55
2022-10-22T17:15:20.197Z,15.46
2022-10-22T17:17:52.588Z,15.36
2022-10-22T17:20:21.532Z,15.30
2022-10-22T17:22:49.799Z,15.22
2022-10-22T17:25:23.307Z,15.15
2022-10-22T17:27:54.006Z,15.09
2022-10-22T17:30:25.079Z,15.03
2022-10-22T17:32:55.917Z,14.99
2022-10-22T17:35:23.974Z,14.95
2022-10-22T17:37:52.066Z,14.91
2022-10-22T17:40:21.798Z,14.86
2022-10-22T17:42:49.897Z,14.81
2022-10-22T17:45:18.162Z,14.76
2022-10-22T17:47:46.339Z,14.71
2022-10-22T17:50:14.332Z,14.66
2022-10-22T17:52:42.979Z,14.60
2022-10-22T17:55:13.252Z,14.54
2022-10-22T17:57:42.827Z,14.49
2022-10-22T18:00:12.261Z,14.44
2022-10-22T18:02:42.648Z,14.41
2022-10-22T18:05:13.029Z,14.39
2022-10-22T18:07:40.997Z,14.36
2022-10-22T18:10:10.223Z,14.34
2022-10-22T18:12:38.403Z,14.30
2022-10-22T18:15:08.960Z,14.28
2022-10-22T18:17:40.199Z,14.26
2022-10-22T18:20:09.472Z,14.24
2022-10-22T18:22:37.740Z,14.22
2022-10-22T18:25:06.533Z,14.17
2022-10-22T18:27:35.017Z,14.15
2022-10-22T18:30:03.058Z,14.12
2022-10-22T18:32:35.028Z,14.10
2022-10-22T18:35:03.284Z,14.07
2022-10-22T18:37:32.232Z,14.04
2022-10-22T18:40:00.403Z,14.00
2022-10-22T18:42:31.859Z,13.96
2022-10-22T18:45:01.719Z,13.92
2022-10-22T18:47:29.838Z,13.91
2022-10-22T18:49:59.294Z,13.92
2022-10-22T18:52:27.355Z,13.95
2022-10-22T18:54:55.489Z,13.94
2022-10-22T18:57:24.544Z,13.94
2022-10-22T18:59:54.668Z,13.95
2022-10-22T19:02:25.379Z,13.95
2022-10-22T19:04:53.444Z,13.96
2022-10-22T19:07:22.867Z,13.95
2022-10-22T19:09:50.956Z,13.93
2022-10-22T19:12:21.659Z,13.93
2022-10-22T19:14:49.823Z,13.92
2022-10-22T19:17:17.844Z,13.90
2022-10-22T19:19:46.167Z,13.89
2022-10-22T19:22:14.238Z,13.86
2022-10-22T19:24:43.902Z,13.84
2022-10-22T19:27:11.903Z,13.82
2022-10-22T19:29:40.053Z,13.78
2022-10-22T19:34:41.277Z,13.70
2022-10-22T19:37:09.368Z,13.64
2022-10-22T19:39:37.387Z,13.55
2022-10-22T19:42:06.882Z,13.44
2022-10-22T19:44:35.315Z,13.36
2022-10-22T19:47:03.358Z,13.28
2022-10-22T19:49:31.401Z,13.21
2022-10-22T19:51:59.466Z,13.15
2022-10-22T19:54:27.536Z,13.09
2022-10-22T19:56:55.720Z,13.05
2022-10-22T19:59:29.867Z,13.01
2022-10-22T20:01:59.630Z,12.97
2022-10-22T20:04:28.238Z,12.94
2022-10-22T20:06:56.495Z,12.89
2022-10-22T20:09:24.638Z,12.88
2022-10-22T20:11:52.721Z,12.87
2022-10-22T20:14:20.773Z,12.88
2022-10-22T20:16:50.254Z,12.92
2022-10-22T20:19:18.557Z,12.97
2022-10-22T20:21:48.520Z,13.03
2022-10-22T20:24:16.908Z,13.08
2022-10-22T20:26:47.335Z,13.12
2022-10-22T20:29:16.054Z,13.14
2022-10-22T20:31:44.224Z,13.16
2022-10-22T20:34:14.007Z,13.17
2022-10-22T20:36:42.458Z,13.19
2022-10-22T20:39:13.956Z,13.18
2022-10-22T20:41:41.993Z,13.18
2022-10-22T20:44:15.524Z,13.18
2022-10-22T20:46:44.540Z,13.18
2022-10-22T20:49:16.402Z,13.18
2022-10-22T20:51:44.926Z,13.20
2022-10-22T20:54:14.915Z,13.20
2022-10-22T20:56:43.535Z,13.23
2022-10-22T20:59:13.050Z,13.23
2022-10-22T21:01:43.300Z,13.24
2022-10-22T21:04:11.119Z,13.24
2022-10-22T21:06:42.956Z,13.25
2022-10-22T21:09:12.140Z,13.25
2022-10-22T21:11:41.787Z,13.24
2022-10-22T21:14:11.342Z,13.25
2022-10-22T21:16:42.296Z,13.23
2022-10-22T21:19:10.503Z,13.20
2022-10-22T21:21:38.623Z,13.21
2022-10-22T21:24:08.485Z,13.20
2022-10-22T21:26:38.165Z,13.21
2022-10-22T21:29:06.473Z,13.20
2022-10-22T21:31:34.839Z,13.21
2022-10-22T21:34:02.914Z,13.20
2022-10-22T21:36:30.968Z,13.20
2022-10-22T21:38:59.124Z,13.23
2022-10-22T21:41:28.522Z,13.24
2022-10-22T21:43:56.675Z,13.27
2022-10-22T21:46:26.719Z,13.29
2022-10-22T21:48:56.071Z,13.29
2022-10-22T21:51:25.525Z,13.30
2022-10-22T21:53:54.924Z,13.29
2022-10-22T21:56:24.876Z,13.28
2022-10-22T21:58:54.604Z,13.27
2022-10-22T22:01:23.317Z,13.27
2022-10-22T22:03:52.499Z,13.27
2022-10-22T22:06:22.402Z,13.28
2022-10-22T22:08:51.301Z,13.28
2022-10-22T22:11:22.108Z,13.27
2022-10-22T22:13:50.598Z,13.29
2022-10-22T22:16:27.157Z,13.29
2022-10-22T22:18:57.659Z,13.31
2022-10-22T22:21:26.130Z,13.29
2022-10-22T22:23:54.296Z,13.30
2022-10-22T22:26:28.257Z,13.31
2022-10-22T22:28:58.452Z,13.30
2022-10-22T22:31:29.979Z,13.28
2022-10-22T22:34:02.580Z,13.26
2022-10-22T22:36:34.831Z,13.21
2022-10-22T22:39:03.678Z,13.15
2022-10-22T22:41:31.823Z,13.07
2022-10-22T22:43:59.827Z,13.00
2022-10-22T22:46:29.723Z,12.93
2022-10-22T22:48:57.737Z,12.84
2022-10-22T22:51:26.095Z,12.80
2022-10-22T22:53:54.385Z,12.79
2022-10-22T22:56:24.181Z,12.79
2022-10-22T22:58:52.648Z,12.79
2022-10-22T23:01:22.675Z,12.79
2022-10-22T23:03:56.198Z,12.81
2022-10-22T23:06:25.444Z,12.81
2022-10-22T23:08:54.719Z,12.82
2022-10-22T23:11:24.173Z,12.81
2022-10-22T23:13:54.232Z,12.81
2022-10-22T23:16:23.885Z,12.81
2022-10-22T23:18:55.402Z,12.83
2022-10-22T23:21:25.528Z,12.82
2022-10-22T23:23:55.334Z,12.82
2022-10-22T23:26:25.049Z,12.83
2022-10-22T23:28:53.100Z,12.83
2022-10-22T23:31:22.331Z,12.84
2022-10-22T23:33:50.383Z,12.85
2022-10-22T23:36:19.763Z,12.87
2022-10-22T23:38:47.762Z,12.89
2022-10-22T23:41:15.814Z,12.92
2022-10-22T23:43:43.869Z,12.96
2022-10-22T23:46:13.370Z,12.98
2022-10-22T23:48:41.682Z,13.02
2022-10-22T23:51:13.271Z,13.03
2022-10-22T23:53:43.766Z,13.04
2022-10-22T23:56:15.360Z,13.04
2022-10-22T23:58:44.136Z,13.03
